SVRW weather

Rosario Airport
Zulia, Venezuela

Public forecast

Using degrees Celsius for public forecast. Weather courtesy of forecast.io.

METAR (pilot weather report)

Report is more than 6 hours old.

Closest report is Santa B├írbara del Zulia Airport, 29.4 nm (54.4 km) ESE. Retrieved 2016/06/08 18:00 UTC (3 years ago):

SVSZ 081800Z 00000KT CAVOK XX/XX Q1012

TAF (pilot weather forecast)

Forecast is more than 12 hours old.

Closest forecast is Camilo Daza International Airport, 76.8 nm (142.2 km) S. Retrieved 2019/05/25 00:45 UTC (1 day ago):

TAF TAF SKCC 252230Z 2600/2624 VRB03KT 9999 SCT020 SCT090 TEMPO 2620/2624 6000 DZRA SCT015 TX32/2618Z TN25/2611Z